Flight Track Log - Related Links

Times and Time Zones

All times are in EDT time to prevent confusion due to time zone crossing. See the N24GJ flight status page for this flight to view local times or setup timezone preferences in your user account.

Time Position Orientation Groundspeed Altitude Reporting Facility
EDT Latitude Longitude Course Direction KTS MPH feet Rate Location/Type
Thu 09:12:23 AM 38.5500 -90.1333 113° Southeast 166 191 1,200  Level Gateway (St. Louis) TRACON
Thu 09:13:29 AM 38.5333 -90.0833 113° Southeast 151 174 2,500 1,273 Climbing Gateway (St. Louis) TRACON
Thu 09:14:02 AM 38.5092 -90.0625 146° Southeast 151 174 3,300 1,326 Climbing Kansas City Center
Thu 09:15:04 AM 38.4689 -90.0317 149° Southeast 162 186 4,600 1,355 Climbing Kansas City Center
Thu 09:16:06 AM 38.4269 -90.0039 153° Southeast 168 193 6,100 1,268 Climbing Kansas City Center
Thu 09:17:07 AM 38.3850 -89.9794 155° Southeast 167 192 7,200 1,073 Climbing Kansas City Center
Thu 09:18:09 AM 38.3397 -89.9517 154° Southeast 173 199 8,300 1,073 Climbing Kansas City Center
Thu 09:19:10 AM 38.2939 -89.9244 155° Southeast 178 205 9,400 976 Climbing Kansas City Center
Thu 09:20:12 AM 38.2489 -89.8897 149° Southeast 183 211 10,300 878 Climbing Kansas City Center
Thu 09:21:13 AM 38.2097 -89.8414 136° Southeast 190 219 11,200 976 Climbing Kansas City Center
Thu 09:22:15 AM 38.1761 -89.7744 123° Southeast 189 217 12,300 968 Climbing Kansas City Center
Thu 09:23:17 AM 38.1419 -89.7200 129° Southeast 192 221 13,200 878 Climbing Kansas City Center
Thu 09:24:18 AM 38.1078 -89.6661 129° Southeast 193 222 14,100 878 Climbing Kansas City Center
Thu 09:25:20 AM 38.0708 -89.6111 130° Southeast 191 220 15,000 726 Climbing Kansas City Center
Thu 09:26:22 AM 38.0342 -89.5594 132° Southeast 195 224 15,600 634 Climbing Kansas City Center
Thu 09:27:23 AM 37.9986 -89.5053 130° Southeast 200 230 16,300 732 Climbing Kansas City Center
Thu 09:28:25 AM 37.9614 -89.4478 129° Southeast 197 227 17,100 683 Climbing Kansas City Center
Thu 09:29:26 AM 37.9272 -89.3950 129° Southeast 196 226 17,700 537 Climbing Kansas City Center
Thu 09:30:28 AM 37.8922 -89.3400 129° Southeast 197 227 18,200 581 Climbing Kansas City Center
Thu 09:31:30 AM 37.8525 -89.2808 130° Southeast 204 235 18,900 634 Climbing Kansas City Center
Thu 09:32:31 AM 37.8186 -89.2278 129° Southeast 199 229 19,500 634 Climbing Kansas City Center
Thu 09:33:33 AM 37.7817 -89.1717 130° Southeast 205 236 20,200 581 Climbing Kansas City Center
Thu 09:34:35 AM 37.7439 -89.1194 132° Southeast 202 232 20,700 387 Climbing Kansas City Center
Thu 09:35:37 AM 37.7086 -89.0639 129° Southeast 202 232 21,000 146 Climbing Kansas City Center
Thu 09:36:38 AM 37.6681 -89.0036 130° Southeast 218 251 21,000  Level Kansas City Center
Thu 09:37:40 AM 37.6244 -88.9389 130° Southeast 235 270 21,000  Level Kansas City Center
Thu 09:38:42 AM 37.5731 -88.8586 129° Southeast 242 278 21,000 -48 Level Kansas City Center
Thu 09:39:44 AM 37.5300 -88.7939 130° Southeast 241 277 20,900  Descending Kansas City Center
Thu 09:40:45 AM 37.4878 -88.7278 129° Southeast 242 278 21,000 49 Climbing Kansas City Center
Thu 09:41:47 AM 37.4442 -88.6631 130° Southeast 242 278 21,000  Level Kansas City Center
Thu 09:42:49 AM 37.4000 -88.5983 131° Southeast 242 278 21,000  Level Kansas City Center
Thu 09:43:26 AM 37.3753 -88.5639 132° Southeast 246 283 21,000  Level Memphis Center
Thu 09:44:26 AM 37.3303 -88.4972 130° Southeast 246 283 21,000  Level Memphis Center
Thu 09:45:26 AM 37.2878 -88.4331 130° Southeast 246 283 21,000  Level Memphis Center
Thu 09:46:26 AM 37.2431 -88.3689 131° Southeast 246 283 21,000  Level Memphis Center
Thu 09:47:26 AM 37.2003 -88.3022 129° Southeast 240 276 21,000  Level Memphis Center
Thu 09:48:26 AM 37.1533 -88.2358 132° Southeast 240 276 21,000  Level Memphis Center
Thu 09:49:26 AM 37.1106 -88.1719 130° Southeast 240 276 21,000  Level Memphis Center
Thu 09:50:26 AM 37.0678 -88.1081 130° Southeast 240 276 21,000  Level Memphis Center
Thu 09:51:26 AM 37.0206 -88.0392 131° Southeast 240 276 21,000  Level Memphis Center
Thu 09:52:26 AM 36.9756 -87.9756 132° Southeast 240 276 21,000  Level Memphis Center
Thu 09:53:26 AM 36.9347 -87.9119 129° Southeast 240 276 21,000  Level Memphis Center
Thu 09:54:26 AM 36.8897 -87.8486 132° Southeast 240 276 21,000  Level Memphis Center
Thu 09:55:26 AM 36.8406 -87.7800 132° Southeast 234 269 21,000  Level Memphis Center
Thu 09:56:26 AM 36.7975 -87.7167 130° Southeast 234 269 21,000  Level Memphis Center
Thu 09:57:26 AM 36.7544 -87.6561 132° Southeast 234 269 21,000  Level Memphis Center
Thu 09:58:26 AM 36.7114 -87.5928 130° Southeast 239 275 21,000  Level Memphis Center
Thu 09:59:26 AM 36.6683 -87.5294 130° Southeast 239 275 21,000  Level Memphis Center
Thu 10:00:26 AM 36.6253 -87.4689 132° Southeast 234 269 21,000  Level Memphis Center
Thu 10:01:26 AM 36.5822 -87.4086 132° Southeast 239 275 21,000  Level Memphis Center
Thu 10:02:26 AM 36.5389 -87.3456 131° Southeast 239 275 21,000  Level Memphis Center
Thu 10:03:26 AM 36.4958 -87.2853 132° Southeast 239 275 21,000  Level Memphis Center
Thu 10:04:26 AM 36.4525 -87.2222 130° Southeast 239 275 21,000  Level Memphis Center
Thu 10:05:26 AM 36.4133 -87.1644 130° Southeast 239 275 21,000  Level Memphis Center
Thu 10:06:26 AM 36.3703 -87.1069 133° Southeast 239 275 21,000  Level Memphis Center
Thu 10:07:26 AM 36.3247 -87.0417 131° Southeast 239 275 21,000  Level Memphis Center
Thu 10:08:26 AM 36.2794 -86.9844 134° Southeast 239 275 21,000  Level Memphis Center
Thu 10:09:26 AM 36.2339 -86.9194 131° Southeast 239 275 21,000  Level Memphis Center
Thu 10:10:26 AM 36.1906 -86.8569 131° Southeast 239 275 21,000  Level Memphis Center
Thu 10:11:26 AM 36.1469 -86.7919 130° Southeast 239 275 21,000  Level Memphis Center
Thu 10:12:26 AM 36.1033 -86.7322 132° Southeast 239 275 21,000  Level Memphis Center
Thu 10:13:26 AM 36.0600 -86.6700 131° Southeast 239 275 21,000  Level Memphis Center
Thu 10:14:26 AM 36.0183 -86.6078 130° Southeast 239 275 21,000  Level Memphis Center
Thu 10:15:26 AM 35.9728 -86.5456 132° Southeast 239 275 21,000  Level Memphis Center
Thu 10:16:26 AM 35.9314 -86.4861 131° Southeast 239 275 21,000  Level Memphis Center
Thu 10:17:26 AM 35.8878 -86.4242 131° Southeast 239 275 21,000  Level Memphis Center
Thu 10:18:26 AM 35.8397 -86.3572 132° Southeast 239 275 21,000  Level Memphis Center
Thu 10:19:26 AM 35.7961 -86.2978 132° Southeast 239 275 21,000  Level Memphis Center
Thu 10:20:26 AM 35.7503 -86.2361 132° Southeast 239 275 21,000  Level Memphis Center
Thu 10:21:26 AM 35.7086 -86.1744 130° Southeast 234 269 21,000  Level Memphis Center
Thu 10:22:26 AM 35.6625 -86.1128 133° Southeast 234 269 21,000  Level Memphis Center
Thu 10:23:26 AM 35.6189 -86.0539 132° Southeast 234 269 21,000  Level Memphis Center
Thu 10:24:26 AM 35.5794 -85.9997 132° Southeast 234 269 21,000  Level Memphis Center
Thu 10:25:26 AM 35.5378 -85.9406 131° Southeast 234 269 21,000  Level Memphis Center
Thu 10:26:26 AM 35.4939 -85.8819 133° Southeast 234 269 21,000  Level Memphis Center
Thu 10:27:26 AM 35.4500 -85.8231 132° Southeast 234 269 21,000  Level Memphis Center
Thu 10:28:26 AM 35.4061 -85.7617 131° Southeast 239 275 21,000  Level Memphis Center
Thu 10:29:26 AM 35.3642 -85.7031 131° Southeast 239 275 21,000  Level Memphis Center
Thu 10:31:35 AM 35.2686 -85.5728 132° Southeast 229 264 21,000  Level Atlanta Center
Thu 10:32:35 AM 35.2256 -85.5133 132° Southeast 229 264 21,000  Level Atlanta Center
Thu 10:33:35 AM 35.1844 -85.4567 132° Southeast 229 264 21,000  Level Atlanta Center
Thu 10:34:35 AM 35.1411 -85.4003 133° Southeast 229 264 21,000  Level Atlanta Center
Thu 10:35:35 AM 35.1000 -85.3436 132° Southeast 224 258 21,000  Level Atlanta Center
Thu 10:36:35 AM 35.0569 -85.2847 132° Southeast 224 258 21,000 -650 Level Atlanta Center
Thu 10:37:35 AM 35.0053 -85.2281 138° Southeast 224 258 19,700 -1,200 Descending Atlanta Center
Thu 10:38:35 AM 34.9517 -85.1639 136° Southeast 242 278 18,600 -1,050 Descending Atlanta Center
Thu 10:39:35 AM 34.9042 -85.1000 132° Southeast 255 293 17,600 -800 Descending Atlanta Center
Thu 10:40:35 AM 34.8547 -85.0386 134° Southeast 255 293 17,000 -250 Descending Atlanta Center
Thu 10:41:35 AM 34.8069 -84.9825 136° Southeast 248 285 17,100 50 Climbing Atlanta Center
Thu 10:42:35 AM 34.7594 -84.9236 134° Southeast 243 280 17,100  Level Atlanta Center
Thu 10:43:35 AM 34.7139 -84.8675 135° Southeast 243 280 17,100  Level Atlanta Center
Thu 10:44:35 AM 34.6683 -84.8092 134° Southeast 243 280 17,100 -50 Level Atlanta Center
Thu 10:45:35 AM 34.6250 -84.7506 132° Southeast 233 268 17,000 -50 Descending Atlanta Center
Thu 10:46:35 AM 34.5836 -84.7022 136° Southeast 228 262 17,000 -450 Level Atlanta Center
Thu 10:47:35 AM 34.5378 -84.6389 131° Southeast 228 262 16,100 -1,300 Descending Atlanta Center
Thu 10:48:35 AM 34.4881 -84.5781 135° Southeast 241 277 14,400 -1,800 Descending Atlanta Center
Thu 10:49:35 AM 34.4403 -84.5175 134° Southeast 249 287 12,500 -1,900 Descending Atlanta Center
Thu 10:50:35 AM 34.3947 -84.4642 136° Southeast 242 278 10,600 -2,150 Descending Atlanta Center
Thu 10:51:35 AM 34.3489 -84.4086 135° Southeast 237 273 8,200 -1,750 Descending Atlanta Center
Thu 10:52:35 AM 34.3011 -84.3531 136° Southeast 229 264 7,100 -600 Descending Atlanta Center
Thu 10:53:35 AM 34.2594 -84.3053 137° Southeast 218 251 7,000 -550 Descending Atlanta Center
Thu 10:54:35 AM 34.2178 -84.2547 135° Southeast 212 244 6,000 -950 Descending Atlanta Center
Thu 10:55:35 AM 34.1761 -84.2019 134° Southeast 212 244 5,100 -450 Descending Atlanta Center
Thu 10:56:35 AM 34.1428 -84.1492 127° Southeast 205 236 5,100 -100 Level Atlanta Center
Thu 10:57:35 AM 34.1386 -84.0789 94° East 194 223 4,900 -550 Descending Atlanta Center
Thu 10:58:35 AM 34.1408 -84.0111 88° East 199 229 4,000 -400 Descending Atlanta Center
Thu 10:59:35 AM 34.1428 -83.9561 88° East 188 216 4,100 36 Climbing Atlanta Center
Thu 11:01:20 AM 34.1500 -83.8500 85° East 185 213 4,100  Level Atlanta TRACON
Thu 11:02:20 AM 34.1167 -83.8000 129° Southeast 183 211 4,100  Level Atlanta TRACON
Thu 11:03:20 AM 34.0833 -83.8000 180° South 163 188 4,100 -250 Level Atlanta TRACON
Thu 11:04:20 AM 34.0333 -83.8167 195° South 148 170 3,600 -600 Descending Atlanta TRACON
Thu 11:05:20 AM 34.0167 -83.8667 248° West 143 165 2,900 -700 Descending Atlanta TRACON
Thu 11:06:20 AM 34.0000 -83.9000 239° Southwest 120 138 2,200 -650 Descending Atlanta TRACON
Thu 11:07:20 AM 33.9833 -83.9333 239° Southwest 103 119 1,600 -600 Descending Atlanta TRACON

Login

Don't have an account? Register now (free) for customized features, flight alerts, and more!